Time;durP1;ratioP1;P1;durP2;ratioP2;P2;SDS_P1;SDS_P2;PMS_P1;PMS_P2;Temp;Humidity;BMP_temperature;BMP_pressure;BME280_temperature;BME280_humidity;BME280_pressure;Samples;Min_cycle;Max_cycle;Signal;HPM_P1;HPM_P2
2022/07/16 00:02:39;;;;;;;5.97;4.18;;;;;;;15.26;72.44;102036.44;4833531;29;20045;-68
2022/07/16 00:05:06;;;;;;;9.15;5.15;;;;;;;15.13;72.36;102029.94;4875862;29;20047;-68
2022/07/16 00:07:31;;;;;;;7.90;4.00;;;;;;;15.08;72.79;102037.75;4875431;29;20109;-68
2022/07/16 00:09:58;;;;;;;8.98;4.75;;;;;;;15.00;73.80;102029.03;4875807;29;20041;-68
2022/07/16 00:12:24;;;;;;;6.60;4.72;;;;;;;14.92;74.08;102026.50;4875427;29;20029;-68
2022/07/16 00:14:49;;;;;;;9.73;6.15;;;;;;;14.89;73.66;102031.25;4875615;29;20033;-68
2022/07/16 00:17:15;;;;;;;12.25;4.72;;;;;;;15.00;74.44;102031.72;4875598;29;20362;-67
2022/07/16 00:19:40;;;;;;;4.88;4.05;;;;;;;15.01;73.98;102026.16;4875586;29;20045;-68
2022/07/16 00:22:06;;;;;;;22.65;6.10;;;;;;;15.06;74.17;102033.59;4875517;29;20485;-68
2022/07/16 00:24:31;;;;;;;8.48;5.32;;;;;;;15.05;74.68;102035.47;4875426;29;20032;-67
2022/07/16 00:26:56;;;;;;;8.85;4.50;;;;;;;15.05;73.09;102023.91;4875541;29;20121;-68
2022/07/16 00:29:22;;;;;;;12.98;6.03;;;;;;;15.07;73.05;102024.53;4875598;29;20089;-68
2022/07/16 00:31:49;;;;;;;9.43;5.75;;;;;;;15.13;72.41;102029.13;4874815;29;20021;-68
2022/07/16 00:34:15;;;;;;;8.85;5.22;;;;;;;15.17;71.99;102032.22;4874789;29;20041;-68
2022/07/16 00:36:41;;;;;;;9.38;5.65;;;;;;;15.17;72.07;102025.00;4875235;29;20119;-68
2022/07/16 00:39:08;;;;;;;7.72;4.82;;;;;;;15.19;71.94;102024.78;4875472;29;20048;-68
2022/07/16 00:41:35;;;;;;;7.45;4.50;;;;;;;15.23;72.31;102029.59;4875403;29;20032;-68
2022/07/16 00:44:06;;;;;;;7.22;4.70;;;;;;;15.28;71.83;102024.44;4875347;29;20474;-67
2022/07/16 00:46:32;;;;;;;8.33;4.90;;;;;;;15.33;71.62;102023.84;4875298;29;20039;-67
2022/07/16 00:48:58;;;;;;;8.95;4.93;;;;;;;15.38;71.48;102024.09;4875243;29;20033;-68
2022/07/16 00:51:25;;;;;;;9.10;5.32;;;;;;;15.41;71.42;102025.53;4875177;29;20635;-68
2022/07/16 00:53:52;;;;;;;8.45;4.50;;;;;;;15.45;71.43;102027.63;4875246;29;20482;-68
2022/07/16 00:56:18;;;;;;;9.10;4.72;;;;;;;15.46;71.75;102029.28;4874941;29;20443;-68
2022/07/16 00:58:45;;;;;;;6.25;4.47;;;;;;;15.48;72.33;102026.38;4874585;29;20041;-68
2022/07/16 01:01:12;;;;;;;8.90;4.22;;;;;;;15.48;71.72;102021.88;4875121;29;20037;-68
2022/07/16 01:03:39;;;;;;;8.00;4.32;;;;;;;15.52;71.59;102028.47;4875066;29;20581;-68
2022/07/16 01:06:07;;;;;;;12.07;5.25;;;;;;;15.53;71.23;102030.13;4874999;29;20049;-68
2022/07/16 01:08:34;;;;;;;6.38;4.68;;;;;;;15.52;71.85;102023.09;4877775;29;20044;-68
2022/07/16 01:11:01;;;;;;;7.10;4.38;;;;;;;15.55;71.86;102029.94;4878708;29;20037;-68
2022/07/16 01:13:28;;;;;;;11.05;5.82;;;;;;;15.55;71.55;102019.19;4878675;29;20890;-67
2022/07/16 01:15:53;;;;;;;8.32;5.25;;;;;;;15.53;72.33;102016.69;4878639;29;20096;-68
2022/07/16 01:18:18;;;;;;;11.05;5.10;;;;;;;15.54;71.96;102018.34;4878369;29;20033;-67
2022/07/16 01:20:44;;;;;;;10.77;5.82;;;;;;;15.53;71.94;102014.00;4878502;29;20065;-68
2022/07/16 01:23:10;;;;;;;12.63;5.78;;;;;;;15.52;72.10;102019.59;4878496;29;20493;-68
2022/07/16 01:25:35;;;;;;;7.88;5.35;;;;;;;15.50;72.02;102014.41;4878296;29;20040;-67
2022/07/16 01:28:00;;;;;;;13.77;5.43;;;;;;;15.52;71.53;102019.59;4878359;29;20047;-67
2022/07/16 01:30:26;;;;;;;8.38;4.90;;;;;;;15.46;71.72;101998.91;4878292;29;20044;-67
2022/07/16 01:32:51;;;;;;;12.52;5.28;;;;;;;15.46;71.72;101999.72;4861194;29;20084;-67
2022/07/16 01:35:18;;;;;;;15.98;5.65;;;;;;;15.53;72.21;102002.41;4877650;29;20044;-68
2022/07/16 01:37:43;;;;;;;8.43;5.80;;;;;;;15.56;72.43;102012.75;4877718;29;20049;-68
2022/07/16 01:40:08;;;;;;;13.23;5.53;;;;;;;15.55;72.15;102011.13;4878038;29;20029;-68
2022/07/16 01:42:34;;;;;;;12.40;5.45;;;;;;;15.51;72.47;102007.16;4861390;29;20041;-67
2022/07/16 01:45:00;;;;;;;9.63;4.88;;;;;;;15.50;72.00;102014.41;4878352;29;20027;-68
2022/07/16 01:47:25;;;;;;;11.48;4.90;;;;;;;15.48;72.15;102015.63;4877771;29;20040;-68
2022/07/16 01:49:51;;;;;;;9.35;4.88;;;;;;;15.48;72.28;102021.88;4878120;29;20534;-67
2022/07/16 01:52:19;;;;;;;9.85;5.70;;;;;;;15.47;72.64;102025.56;4877855;29;20032;-67
2022/07/16 01:54:47;;;;;;;9.57;5.70;;;;;;;15.38;72.96;102005.28;4877685;29;20385;-68
2022/07/16 01:57:14;;;;;;;9.38;5.47;;;;;;;15.43;73.31;102016.25;4877928;29;20036;-68
2022/07/16 01:59:40;;;;;;;11.43;6.38;;;;;;;15.43;72.98;102010.88;4877575;29;20123;-68
2022/07/16 02:02:05;;;;;;;10.82;5.47;;;;;;;15.41;72.76;102012.94;4877134;29;20120;-68
2022/07/16 02:04:32;;;;;;;6.68;4.85;;;;;;;15.41;72.74;102014.78;4877950;29;20085;-67
2022/07/16 02:06:57;;;;;;;8.57;4.95;;;;;;;15.41;72.86;102014.78;4880112;29;20041;-68
2022/07/16 02:09:23;;;;;;;10.45;5.13;;;;;;;15.41;72.68;102012.94;4861095;29;20037;-68
2022/07/16 02:11:48;;;;;;;6.82;4.63;;;;;;;15.38;72.52;102007.09;4877496;29;20413;-67
2022/07/16 02:14:13;;;;;;;11.80;5.22;;;;;;;15.45;72.42;102013.34;4877588;29;20037;-67
2022/07/16 02:16:39;;;;;;;9.43;4.65;;;;;;;15.44;72.44;102009.84;4877558;29;20041;-67
2022/07/16 02:19:04;;;;;;;6.65;4.40;;;;;;;15.46;72.77;102015.03;4877109;29;20044;-68
2022/07/16 02:21:31;;;;;;;8.25;4.45;;;;;;;15.42;72.39;102009.19;4877546;29;20025;-68
2022/07/16 02:23:57;;;;;;;8.38;4.43;;;;;;;15.37;72.48;102000.91;4877268;29;20104;-68
2022/07/16 02:26:22;;;;;;;7.75;4.60;;;;;;;15.44;72.62;102015.22;4860691;29;20143;-68
2022/07/16 02:28:48;;;;;;;10.18;5.18;;;;;;;15.41;72.33;101999.50;4877252;29;20029;-67
2022/07/16 02:31:13;;;;;;;8.35;4.55;;;;;;;15.43;72.82;102005.50;4877193;29;20120;-67
2022/07/16 02:33:39;;;;;;;7.70;4.40;;;;;;;15.44;72.33;102006.31;4877214;29;20031;-67
2022/07/16 02:36:05;;;;;;;8.57;4.35;;;;;;;15.44;72.12;102003.63;4876346;29;20147;-68
2022/07/16 02:38:30;;;;;;;8.88;5.18;;;;;;;15.43;72.17;102002.81;4876726;29;20029;-67
2022/07/16 02:40:55;;;;;;;6.85;4.63;;;;;;;15.44;72.49;101999.09;4877169;29;20037;-68
2022/07/16 02:43:21;;;;;;;9.55;4.78;;;;;;;15.47;72.25;102003.22;4876838;29;20486;-68
2022/07/16 02:45:46;;;;;;;8.70;4.75;;;;;;;15.47;71.98;102000.53;4877206;29;20089;-67
2022/07/16 02:48:12;;;;;;;13.05;5.25;;;;;;;15.48;71.99;102000.34;4876888;29;20131;-67
2022/07/16 02:50:39;;;;;;;11.45;6.00;;;;;;;15.50;71.68;102006.34;4876851;29;20037;-68
2022/07/16 02:53:04;;;;;;;10.18;5.25;;;;;;;15.51;71.36;101993.72;4876836;29;20036;-67
2022/07/16 02:55:30;;;;;;;10.25;5.70;;;;;;;15.55;71.53;101998.50;4860339;29;20648;-67
2022/07/16 02:57:56;;;;;;;10.98;5.22;;;;;;;15.57;71.63;102001.81;4876843;29;20047;-67
2022/07/16 03:00:22;;;;;;;13.05;5.63;;;;;;;15.60;70.98;101997.06;4876044;29;20043;-68
2022/07/16 03:02:47;;;;;;;11.48;6.22;;;;;;;15.62;70.73;101998.53;4875817;29;20045;-68
2022/07/16 03:05:13;;;;;;;9.60;5.40;;;;;;;15.64;70.63;101996.47;4876354;29;20033;-68
2022/07/16 03:07:38;;;;;;;10.57;5.90;;;;;;;15.65;70.26;101989.22;4876505;29;20048;-67
2022/07/16 03:10:06;;;;;;;11.05;6.55;;;;;;;15.66;69.72;102005.16;4876652;29;20101;-68
2022/07/16 03:12:32;;;;;;;11.38;6.28;;;;;;;15.66;69.91;102001.63;4876548;29;20231;-67
2022/07/16 03:14:58;;;;;;;10.77;6.32;;;;;;;15.70;70.04;102000.25;4876496;29;20533;-67
2022/07/16 03:17:23;;;;;;;12.77;5.68;;;;;;;15.67;69.73;101993.38;4876693;29;20029;-67
2022/07/16 03:19:49;;;;;;;9.75;5.65;;;;;;;15.69;69.56;102002.13;4876574;29;20100;-67
2022/07/16 03:22:16;;;;;;;10.40;5.60;;;;;;;15.73;69.58;102008.72;4859889;29;20056;-67
2022/07/16 03:24:41;;;;;;;10.30;6.40;;;;;;;15.74;69.70;102014.94;4876301;29;20093;-67
2022/07/16 03:27:07;;;;;;;8.57;5.30;;;;;;;15.73;69.60;102008.72;4859680;29;20040;-68
2022/07/16 03:29:32;;;;;;;10.05;5.65;;;;;;;15.76;69.79;102007.50;4875893;29;20483;-67
2022/07/16 03:31:57;;;;;;;14.75;6.47;;;;;;;15.76;69.63;102019.06;4875943;29;20067;-68
2022/07/16 03:34:23;;;;;;;12.15;6.70;;;;;;;15.77;69.82;102018.06;4876228;29;20048;-67
2022/07/16 03:36:48;;;;;;;8.32;5.90;;;;;;;15.77;69.46;102019.91;4876033;29;20033;-68
2022/07/16 03:39:13;;;;;;;10.20;6.38;;;;;;;15.79;69.53;102015.16;4875233;29;20120;-68
2022/07/16 03:41:39;;;;;;;8.38;5.28;;;;;;;15.77;69.75;102017.22;4875935;29;20123;-68
2022/07/16 03:44:08;;;;;;;11.57;6.22;;;;;;;15.80;70.14;102032.97;4875794;29;20045;-68
2022/07/16 03:46:34;;;;;;;12.40;6.00;;;;;;;15.78;70.24;102027.78;4876150;29;20040;-68
2022/07/16 03:49:01;;;;;;;9.05;5.53;;;;;;;15.79;70.21;102028.59;4875636;29;20069;-67
2022/07/16 03:51:26;;;;;;;9.23;5.53;;;;;;;15.80;70.38;102024.91;4875902;29;20076;-67
2022/07/16 03:53:52;;;;;;;12.10;7.10;;;;;;;15.80;70.55;102024.91;4875704;29;20057;-68
2022/07/16 03:56:17;;;;;;;11.90;5.30;;;;;;;15.84;71.07;102028.81;4875775;29;20067;-68
2022/07/16 03:58:43;;;;;;;7.93;5.80;;;;;;;15.86;71.28;102032.16;4875601;29;20378;-67
2022/07/16 04:01:08;;;;;;;9.38;4.47;;;;;;;15.88;71.43;102038.16;4875694;29;20045;-68
2022/07/16 04:03:35;;;;;;;9.90;5.85;;;;;;;15.86;72.27;102034.84;4875712;29;20442;-67
2022/07/16 04:06:01;;;;;;;9.43;5.85;;;;;;;15.89;72.04;102039.00;4874894;29;20057;-68
2022/07/16 04:08:26;;;;;;;10.63;5.47;;;;;;;15.89;72.63;102044.38;4875502;29;20049;-68
2022/07/16 04:10:52;;;;;;;8.20;5.45;;;;;;;15.87;73.30;102041.03;4875699;29;20071;-68
2022/07/16 04:13:17;;;;;;;11.10;5.50;;;;;;;15.85;73.72;102043.97;4875642;29;20030;-68
2022/07/16 04:15:43;;;;;;;14.77;5.00;;;;;;;15.88;74.67;102048.94;4875732;29;20041;-68
2022/07/16 04:18:08;;;;;;;11.30;4.72;;;;;;;15.86;75.09;102052.84;4875418;29;20072;-67
2022/07/16 04:20:34;;;;;;;12.23;5.22;;;;;;;15.85;75.69;102045.78;4875408;29;20049;-67
2022/07/16 04:22:59;;;;;;;9.88;4.70;;;;;;;15.87;75.85;102049.94;4875229;29;20029;-68
2022/07/16 04:25:25;;;;;;;9.85;5.28;;;;;;;15.85;76.53;102049.34;4858813;29;20418;-68
2022/07/16 04:27:50;;;;;;;7.00;4.05;;;;;;;15.85;76.67;102052.03;4875197;29;20041;-67
2022/07/16 04:30:16;;;;;;;8.40;3.90;;;;;;;15.86;77.00;102060.91;4875556;29;20434;-67
2022/07/16 04:32:42;;;;;;;10.35;4.75;;;;;;;15.85;77.06;102053.88;4876395;29;20438;-68
2022/07/16 04:35:09;;;;;;;13.85;5.90;;;;;;;15.87;76.99;102059.88;4875763;29;20487;-68
2022/07/16 04:37:34;;;;;;;11.32;5.13;;;;;;;15.86;78.22;102059.06;4875485;29;20092;-68
2022/07/16 04:40:02;;;;;;;8.27;4.53;;;;;;;15.86;78.24;102058.22;4858327;29;20037;-68
2022/07/16 04:42:27;;;;;;;8.27;4.40;;;;;;;15.77;78.67;102036.91;4878124;29;20037;-68
2022/07/16 04:44:52;;;;;;;9.82;4.90;;;;;;;15.92;79.22;102057.41;4879050;29;20041;-67
2022/07/16 04:47:18;;;;;;;11.48;4.30;;;;;;;16.07;79.32;102063.47;4878901;29;20039;-68
2022/07/16 04:49:43;;;;;;;10.25;5.05;;;;;;;16.20;79.04;102071.56;4879223;29;20112;-67
2022/07/16 04:52:08;;;;;;;13.30;5.20;;;;;;;16.30;79.56;102068.47;4879147;29;20426;-68
2022/07/16 04:54:34;;;;;;;12.38;5.18;;;;;;;16.37;79.76;102068.47;4862430;29;20394;-68
2022/07/16 04:56:59;;;;;;;7.10;4.35;;;;;;;16.42;79.78;102074.06;4878863;29;20115;-70
2022/07/16 04:59:25;;;;;;;12.48;5.30;;;;;;;16.47;80.40;102078.84;4878702;29;20563;-70
2022/07/16 05:01:51;;;;;;;13.70;5.50;;;;;;;16.51;80.43;102072.03;4878772;29;20025;-70
2022/07/16 05:04:16;;;;;;;9.43;5.07;;;;;;;16.64;81.05;102085.50;4878663;29;20033;-70
2022/07/16 05:06:41;;;;;;;8.10;5.00;;;;;;;16.68;80.97;102088.59;4878194;29;20140;-70
2022/07/16 05:09:07;;;;;;;8.68;4.53;;;;;;;16.75;80.84;102090.25;4878642;29;20123;-70
2022/07/16 05:11:32;;;;;;;12.20;5.13;;;;;;;16.81;81.38;102080.56;4878131;29;20120;-70
2022/07/16 05:13:58;;;;;;;11.52;5.90;;;;;;;16.94;81.27;102088.63;4878404;29;20029;-70
2022/07/16 05:16:23;;;;;;;8.63;4.78;;;;;;;17.03;81.37;102103.56;4878732;29;20505;-70
2022/07/16 05:18:49;;;;;;;6.78;4.45;;;;;;;17.06;81.44;102099.63;4878577;29;20041;-70
2022/07/16 05:21:15;;;;;;;11.40;5.57;;;;;;;17.10;81.65;102098.16;4878601;29;20128;-70
2022/07/16 05:23:40;;;;;;;12.13;6.15;;;;;;;17.16;82.05;102093.78;4878191;29;20120;-70
2022/07/16 05:26:06;;;;;;;11.13;5.75;;;;;;;17.18;82.49;102092.53;4878069;29;20056;-71
2022/07/16 05:28:32;;;;;;;9.00;4.95;;;;;;;17.22;82.39;102096.47;4878295;29;20469;-70
2022/07/16 05:30:57;;;;;;;8.38;5.15;;;;;;;17.24;82.24;102105.19;4878320;29;20033;-70
2022/07/16 05:33:23;;;;;;;10.93;5.20;;;;;;;17.27;82.48;102106.63;4878224;29;20373;-70
2022/07/16 05:35:48;;;;;;;14.02;7.53;;;;;;;17.31;82.57;102105.97;4878153;29;20037;-70
2022/07/16 05:38:14;;;;;;;8.38;4.95;;;;;;;17.34;82.48;102103.91;4878445;29;20037;-70
2022/07/16 05:40:40;;;;;;;12.90;4.82;;;;;;;17.36;83.11;102112.63;4878302;29;20401;-70
2022/07/16 05:43:06;;;;;;;8.88;5.10;;;;;;;17.39;82.69;102117.59;4877681;29;20033;-70
2022/07/16 05:45:32;;;;;;;8.27;4.43;;;;;;;17.44;82.69;102115.09;4878349;29;20036;-70
2022/07/16 05:47:57;;;;;;;13.15;4.70;;;;;;;17.42;82.71;102109.06;4878037;29;20036;-70
2022/07/16 05:50:23;;;;;;;10.93;4.30;;;;;;;17.44;83.38;102117.78;4877935;29;20033;-70
2022/07/16 05:52:48;;;;;;;11.52;4.03;;;;;;;17.40;82.80;102111.19;4877335;29;20024;-68
2022/07/16 05:55:13;;;;;;;9.88;4.70;;;;;;;17.47;83.32;102120.06;4878168;29;20116;-68
2022/07/16 05:57:39;;;;;;;8.63;3.80;;;;;;;17.46;83.21;102121.09;4877460;29;20052;-67
2022/07/16 06:00:10;;;;;;;5.35;3.00;;;;;;;17.40;81.86;102120.09;4877844;29;20033;-67
2022/07/16 06:02:37;;;;;;;6.65;3.42;;;;;;;17.34;82.56;102126.31;4877607;29;20550;-67
2022/07/16 06:05:02;;;;;;;8.35;3.72;;;;;;;17.36;82.81;102131.50;4877959;29;20029;-67
2022/07/16 06:07:28;;;;;;;6.28;3.63;;;;;;;17.35;82.19;102130.69;4879349;29;20382;-67
2022/07/16 06:09:53;;;;;;;7.43;2.80;;;;;;;17.29;82.73;102134.19;4877330;29;20049;-67
2022/07/16 06:12:18;;;;;;;5.55;2.58;;;;;;;17.29;81.26;102136.91;4877475;29;20065;-67
2022/07/16 06:14:44;;;;;;;6.13;3.15;;;;;;;17.35;81.22;102141.47;4877690;29;20033;-67
2022/07/16 06:17:09;;;;;;;8.18;3.58;;;;;;;17.39;81.42;102142.69;4877614;29;20642;-68
2022/07/16 06:19:35;;;;;;;6.32;3.40;;;;;;;17.40;80.70;102148.94;4877476;29;20067;-67
2022/07/16 06:22:00;;;;;;;6.93;2.47;;;;;;;17.41;81.75;102143.31;4877418;29;20093;-68
2022/07/16 06:24:26;;;;;;;7.68;2.90;;;;;;;17.40;81.30;102149.75;4877326;29;20088;-67
2022/07/16 06:26:51;;;;;;;8.52;3.35;;;;;;;17.46;81.51;102143.50;4876767;29;20036;-67
2022/07/16 06:29:17;;;;;;;4.30;2.30;;;;;;;17.57;80.73;102149.31;4860771;29;20449;-67
2022/07/16 06:31:44;;;;;;;4.80;2.38;;;;;;;17.68;80.17;102148.63;4877093;29;20045;-66
2022/07/16 06:34:10;;;;;;;4.70;2.35;;;;;;;17.73;79.54;102148.84;4877356;29;20021;-66
2022/07/16 06:36:36;;;;;;;5.45;2.58;;;;;;;17.78;77.66;102159.00;4877211;29;20025;-67
2022/07/16 06:39:03;;;;;;;3.40;1.88;;;;;;;17.71;76.51;102150.91;4877214;29;20481;-66
2022/07/16 06:41:29;;;;;;;4.53;2.10;;;;;;;17.77;74.88;102168.16;4877138;29;20035;-67
2022/07/16 06:43:54;;;;;;;3.63;2.10;;;;;;;17.75;75.15;102168.34;4876859;29;20033;-67
2022/07/16 06:46:19;;;;;;;6.35;1.85;;;;;;;17.80;75.23;102167.75;4860227;29;20036;-67
2022/07/16 06:48:45;;;;;;;2.40;1.73;;;;;;;17.88;73.54;102168.34;4877040;29;20519;-67
2022/07/16 06:51:10;;;;;;;4.03;1.70;;;;;;;17.97;73.09;102171.63;4877162;29;20454;-67
2022/07/16 06:53:37;;;;;;;4.68;1.80;;;;;;;17.92;73.89;102169.59;4876895;29;20085;-68
2022/07/16 06:56:03;;;;;;;3.63;2.15;;;;;;;17.94;73.26;102174.75;4876792;29;20512;-67
2022/07/16 06:58:29;;;;;;;3.72;1.65;;;;;;;17.95;70.98;102179.13;4876711;29;20080;-68
2022/07/16 07:00:54;;;;;;;5.53;2.10;;;;;;;17.97;71.22;102195.91;4876668;29;20442;-67
2022/07/16 07:03:20;;;;;;;2.17;1.63;;;;;;;18.03;70.45;102186.97;4876687;29;20033;-66
2022/07/16 07:05:45;;;;;;;3.65;1.70;;;;;;;18.16;70.44;102192.31;4875510;29;20092;-67
2022/07/16 07:08:10;;;;;;;2.65;1.67;;;;;;;18.26;70.20;102191.88;4876898;29;20039;-66
2022/07/16 07:10:36;;;;;;;2.72;1.35;;;;;;;18.28;67.60;102200.56;4876035;29;20048;-66
2022/07/16 07:13:02;;;;;;;4.95;1.98;;;;;;;18.36;67.63;102210.28;4876187;29;20032;-66
2022/07/16 07:15:29;;;;;;;5.47;1.98;;;;;;;18.40;68.29;102208.84;4876429;29;20025;-67
2022/07/16 07:17:54;;;;;;;2.47;1.52;;;;;;;18.44;65.51;102215.44;4876561;29;20508;-67
2022/07/16 07:20:20;;;;;;;3.20;1.10;;;;;;;18.42;64.90;102214.84;4876540;29;20052;-67
2022/07/16 07:22:45;;;;;;;4.53;1.40;;;;;;;18.46;64.90;102223.34;4876484;29;20041;-66
2022/07/16 07:25:10;;;;;;;1.33;1.08;;;;;;;18.39;63.62;102226.06;4876229;29;20035;-67
2022/07/16 07:27:36;;;;;;;2.72;1.27;;;;;;;18.40;65.31;102228.56;4876285;29;20041;-67
2022/07/16 07:30:02;;;;;;;6.82;1.92;;;;;;;18.42;67.04;102222.13;4875931;29;20042;-68
2022/07/16 07:32:27;;;;;;;2.08;1.05;;;;;;;18.51;66.11;102235.16;4871523;29;20040;-75
2022/07/16 07:34:53;;;;;;;7.03;1.52;;;;;;;18.54;64.81;102229.31;4871941;29;20033;-70
2022/07/16 07:37:18;;;;;;;2.80;1.23;;;;;;;18.57;65.59;102228.88;4872694;29;20159;-75
2022/07/16 07:39:43;;;;;;;2.85;1.42;;;;;;;18.59;66.80;102226.81;4875882;29;20390;-71
2022/07/16 07:42:09;;;;;;;1.80;1.33;;;;;;;18.59;64.46;102232.22;4876112;29;20029;-71
2022/07/16 07:44:35;;;;;;;3.08;1.48;;;;;;;18.61;65.88;102240.13;4875821;29;20477;-71
2022/07/16 07:47:00;;;;;;;4.55;1.90;;;;;;;18.61;63.78;102249.03;4875567;29;20445;-72
2022/07/16 07:49:25;;;;;;;3.38;1.10;;;;;;;18.64;63.50;102236.16;4875825;29;20496;-71
2022/07/16 07:51:53;;;;;;;4.32;1.60;;;;;;;18.71;63.54;102243.19;4859305;29;20497;-71
2022/07/16 07:54:19;;;;;;;4.65;2.22;;;;;;;18.75;63.64;102247.13;4875809;29;20040;-71
2022/07/16 07:56:44;;;;;;;2.38;1.60;;;;;;;18.73;64.83;102232.97;4875861;29;20061;-71
2022/07/16 07:59:09;;;;;;;3.85;1.45;;;;;;;18.82;64.22;102245.22;4875859;29;20041;-71
2022/07/16 08:01:34;;;;;;;3.22;1.25;;;;;;;18.80;62.13;102241.88;4875637;29;20029;-71
2022/07/16 08:04:00;;;;;;;6.28;1.33;;;;;;;18.73;59.00;102246.50;4875536;29;20063;-70
2022/07/16 08:06:25;;;;;;;4.55;1.52;;;;;;;18.81;58.92;102242.72;4875399;29;20569;-72
2022/07/16 08:08:51;;;;;;;1.90;1.58;;;;;;;18.96;58.28;102247.81;4875674;29;20056;-71
2022/07/16 08:11:16;;;;;;;6.00;2.47;;;;;;;18.96;56.19;102245.13;4875613;29;20409;-71
2022/07/16 08:13:42;;;;;;;5.20;1.70;;;;;;;18.93;56.14;102253.69;4874988;29;20036;-71
2022/07/16 08:16:07;;;;;;;2.95;1.08;;;;;;;18.94;56.46;102248.06;4875232;29;20477;-71
2022/07/16 08:18:32;;;;;;;0.90;0.85;;;;;;;19.64;55.30;102253.31;4875707;29;20073;-71
2022/07/16 08:20:58;;;;;;;1.83;1.00;;;;;;;21.57;51.08;102263.53;4875428;29;20116;-71
2022/07/16 08:26:07;;;;;;;5.03;1.05;;;;;;;24.95;42.20;102263.72;4875700;29;20056;-71
2022/07/16 08:28:32;;;;;;;7.13;2.28;;;;;;;26.02;39.38;102267.25;4875304;29;20041;-69
2022/07/16 08:30:58;;;;;;;3.67;1.10;;;;;;;26.99;39.57;102256.56;4875377;29;20033;-69
2022/07/16 08:33:23;;;;;;;4.38;1.60;;;;;;;27.03;36.76;102274.09;4875329;29;20052;-68
2022/07/16 08:35:49;;;;;;;0.80;0.80;;;;;;;27.21;36.76;102269.19;4875465;29;20040;-68
2022/07/16 08:38:14;;;;;;;2.33;1.10;;;;;;;27.89;35.77;102272.38;4875312;29;20037;-69
2022/07/16 08:40:41;;;;;;;10.90;2.10;;;;;;;28.94;35.14;102278.72;4875260;29;20029;-69
2022/07/16 08:43:08;;;;;;;3.53;1.25;;;;;;;29.09;32.46;102286.06;4875330;29;20036;-69
2022/07/16 08:45:36;;;;;;;1.85;0.90;;;;;;;29.33;32.84;102285.31;4875348;29;20036;-69
2022/07/16 08:48:02;;;;;;;4.82;1.17;;;;;;;28.32;34.71;102282.91;4874825;29;20526;-69
2022/07/16 08:50:28;;;;;;;4.30;1.42;;;;;;;28.86;33.84;102293.06;4875070;29;20417;-69
2022/07/16 08:52:56;;;;;;;3.08;1.02;;;;;;;29.58;31.85;102286.97;4875456;29;20037;-69
2022/07/16 08:55:23;;;;;;;2.03;1.08;;;;;;;29.86;31.89;102290.81;4875054;29;20029;-69
2022/07/16 08:57:49;;;;;;;2.78;0.90;;;;;;;29.42;30.91;102311.88;4875370;29;20041;-69
2022/07/16 09:00:15;;;;;;;2.17;0.90;;;;;;;27.14;33.83;102304.22;4874914;29;20596;-68
2022/07/16 09:02:41;;;;;;;2.63;1.60;;;;;;;26.28;35.44;102308.34;4858449;29;20139;-68
2022/07/16 09:05:08;;;;;;;12.30;1.92;;;;;;;27.19;34.41;102304.25;4875329;29;20414;-68
2022/07/16 09:07:34;;;;;;;1.63;0.95;;;;;;;27.15;34.68;102306.69;4875009;29;20057;-69
2022/07/16 09:09:59;;;;;;;3.53;1.30;;;;;;;25.95;36.67;102313.13;4875122;29;20032;-69
2022/07/16 09:12:38;;;;;;;2.72;0.90;;;;;;;24.37;39.10;102313.25;4874923;29;20123;-69
2022/07/16 09:15:28;;;;;;;1.75;0.98;;;;;;;23.56;41.11;102315.63;4874888;29;20481;-67
2022/07/16 09:18:06;;;;;;;4.07;1.48;;;;;;;22.59;43.81;102322.84;4875237;29;20037;-66
2022/07/16 09:20:32;;;;;;;4.03;1.02;;;;;;;21.79;44.67;102318.91;4874975;29;20029;-66
2022/07/16 09:22:57;;;;;;;4.32;1.00;;;;;;;21.38;46.61;102323.34;4875094;29;20045;-66
2022/07/16 09:25:23;;;;;;;3.13;1.17;;;;;;;21.22;46.87;102323.97;4874940;29;20041;-66
2022/07/16 09:27:57;;;;;;;2.30;1.40;;;;;;;21.12;48.25;102323.72;4875230;29;20091;-66
2022/07/16 09:30:24;;;;;;;2.20;1.17;;;;;;;21.02;47.63;102327.00;4878546;29;20200;-67
2022/07/16 09:32:50;;;;;;;2.83;0.88;;;;;;;21.12;49.20;102329.97;4877854;29;20060;-67
2022/07/16 09:35:16;;;;;;;2.20;1.00;;;;;;;21.23;47.49;102331.91;4878294;29;20437;-66
2022/07/16 09:37:55;;;;;;;5.57;1.33;;;;;;;21.21;48.39;102334.00;4878372;29;20052;-67
2022/07/16 09:40:34;;;;;;;1.35;1.02;;;;;;;21.02;49.38;102332.41;4878390;29;20044;-69
2022/07/16 09:43:01;;;;;;;1.40;1.30;;;;;;;20.95;49.84;102332.50;4878202;29;20033;-71
2022/07/16 09:45:26;;;;;;;5.15;1.90;;;;;;;20.85;47.50;102331.41;4877847;29;20033;-71
2022/07/16 09:47:52;;;;;;;2.85;1.10;;;;;;;20.84;48.90;102332.47;4878048;29;20076;-70
2022/07/16 09:50:17;;;;;;;3.97;1.33;;;;;;;20.87;48.04;102324.69;4877889;29;20029;-70
2022/07/16 09:52:43;;;;;;;2.80;1.10;;;;;;;20.98;48.62;102329.31;4878018;29;20054;-70
2022/07/16 09:55:09;;;;;;;2.40;0.90;;;;;;;21.11;49.63;102338.34;4877910;29;20080;-70
2022/07/16 09:57:36;;;;;;;2.47;1.42;;;;;;;20.97;48.54;102340.41;4877868;29;20029;-70
2022/07/16 10:00:06;;;;;;;3.20;1.13;;;;;;;21.02;47.99;102337.84;4861165;29;20036;-69
2022/07/16 10:02:32;;;;;;;4.20;1.13;;;;;;;20.99;48.09;102343.75;4877818;29;20029;-70
2022/07/16 10:04:58;;;;;;;1.77;0.95;;;;;;;20.70;48.97;102340.78;4877705;29;20529;-70
2022/07/16 10:07:23;;;;;;;11.57;2.65;;;;;;;20.42;49.65;102343.16;4877495;29;20092;-70
2022/07/16 10:09:49;;;;;;;2.47;1.75;;;;;;;20.30;51.32;102352.06;4877616;29;20502;-70
2022/07/16 10:12:16;;;;;;;3.17;0.93;;;;;;;20.26;49.17;102342.72;4877473;29;20032;-70
2022/07/16 10:14:47;;;;;;;3.92;1.25;;;;;;;20.33;49.57;102345.31;4877306;29;20033;-69
2022/07/16 10:17:20;;;;;;;3.33;1.07;;;;;;;20.51;49.02;102348.06;4877304;29;20025;-70
2022/07/16 10:19:56;;;;;;;2.33;0.80;;;;;;;20.76;49.18;102348.00;4877529;29;20128;-68
2022/07/16 10:22:28;;;;;;;2.05;1.30;;;;;;;20.65;50.16;102345.22;4877241;29;20025;-69
2022/07/16 10:24:55;;;;;;;2.78;1.17;;;;;;;20.66;50.92;102353.13;4877324;29;20061;-69
2022/07/16 10:27:32;;;;;;;2.47;1.55;;;;;;;20.78;51.06;102356.72;4877363;29;20033;-69
2022/07/16 10:30:29;;;;;;;6.75;1.27;;;;;;;21.12;49.72;102357.13;4877405;29;20496;-69
2022/07/16 10:33:06;;;;;;;1.35;1.00;;;;;;;21.44;49.15;102352.28;4876662;29;20141;-69
2022/07/16 10:35:32;;;;;;;8.02;1.50;;;;;;;21.64;48.02;102353.84;4876892;29;20124;-69
2022/07/16 10:38:08;;;;;;;4.75;1.20;;;;;;;21.91;47.18;102353.41;4877242;29;20111;-70
2022/07/16 10:40:37;;;;;;;2.15;0.80;;;;;;;21.83;45.21;102352.69;4877046;29;20071;-69
2022/07/16 10:43:13;;;;;;;1.52;1.15;;;;;;;21.32;44.86;102354.09;4876457;29;20080;-70
2022/07/16 10:46:02;;;;;;;2.42;1.13;;;;;;;21.16;46.32;102358.28;4877039;29;20029;-70
2022/07/16 10:48:30;;;;;;;3.22;1.38;;;;;;;21.33;47.37;102363.09;4876826;29;20092;-71
2022/07/16 10:51:24;;;;;;;1.38;1.00;;;;;;;21.58;45.43;102377.31;4876840;29;20393;-70
2022/07/16 10:53:56;;;;;;;2.63;1.35;;;;;;;21.43;44.74;102375.06;4876883;29;20040;-70
2022/07/16 10:56:56;;;;;;;2.28;0.82;;;;;;;21.60;46.23;102377.09;4876986;29;20025;-71
2022/07/16 10:59:28;;;;;;;3.83;1.33;;;;;;;21.76;44.15;102381.03;4876533;29;20064;-69
2022/07/16 11:01:56;;;;;;;2.17;1.10;;;;;;;21.96;43.83;102381.50;4876639;29;20430;-71
2022/07/16 11:04:45;;;;;;;3.17;1.13;;;;;;;22.18;43.29;102373.59;4876690;29;20040;-71
2022/07/16 11:07:13;;;;;;;1.88;1.38;;;;;;;22.39;46.32;102388.50;4876793;29;20401;-71
2022/07/16 11:09:42;;;;;;;4.45;1.13;;;;;;;22.37;43.26;102382.47;4876772;29;20485;-71
2022/07/16 11:12:14;;;;;;;1.95;1.02;;;;;;;22.29;43.07;102380.09;4876734;29;20036;-71
2022/07/16 11:14:42;;;;;;;2.83;1.50;;;;;;;22.35;41.42;102381.03;4876444;29;20362;-70
2022/07/16 11:17:07;;;;;;;4.70;1.30;;;;;;;22.43;42.18;102383.41;4876692;29;20429;-71
2022/07/16 11:19:45;;;;;;;2.58;1.02;;;;;;;22.46;41.80;102388.38;4875688;29;20037;-71
2022/07/16 11:22:11;;;;;;;2.60;0.95;;;;;;;22.44;41.31;102385.06;4876592;29;20389;-71
2022/07/16 11:24:48;;;;;;;1.63;1.20;;;;;;;22.47;41.56;102384.59;4876067;29;20045;-72
2022/07/16 11:27:13;;;;;;;2.72;1.05;;;;;;;22.38;41.21;102380.59;4875494;29;20032;-71